createdAt,value
2022-11-15T00:03:21.203Z,68
2022-11-15T00:06:26.491Z,69
2022-11-15T00:09:31.782Z,70
2022-11-15T00:12:37.127Z,63
2022-11-15T00:16:19.505Z,75
2022-11-15T00:19:24.790Z,66
2022-11-15T00:22:30.123Z,70
2022-11-15T00:25:35.411Z,70
2022-11-15T00:30:31.917Z,64
2022-11-15T00:33:37.221Z,63
2022-11-15T00:37:19.611Z,64
2022-11-15T00:40:24.890Z,65
2022-11-15T00:45:21.376Z,68
2022-11-15T00:48:55.544Z,64
2022-11-15T00:51:23.854Z,67
2022-11-15T00:54:29.151Z,68
2022-11-15T00:57:34.451Z,72
2022-11-15T01:00:39.756Z,70
2022-11-15T01:04:22.091Z,63
2022-11-15T01:07:27.511Z,67
2022-11-15T01:10:32.748Z,65
2022-11-15T01:13:38.053Z,74
2022-11-15T01:17:20.410Z,70
2022-11-15T01:20:25.717Z,67
2022-11-15T01:23:31.471Z,67
2022-11-15T01:26:36.390Z,69
2022-11-15T01:29:41.625Z,74
2022-11-15T01:33:24.021Z,70
2022-11-15T01:36:29.340Z,78
2022-11-15T01:39:34.621Z,74
2022-11-15T01:42:39.927Z,70
2022-11-15T01:46:22.286Z,66
2022-11-15T01:48:51.587Z,72
2022-11-15T01:53:38.869Z,71
2022-11-15T01:57:21.234Z,73
2022-11-15T02:00:26.537Z,65
2022-11-15T02:03:32.124Z,71
2022-11-15T02:06:37.182Z,67
2022-11-15T02:10:19.579Z,66
2022-11-15T02:13:24.879Z,68
2022-11-15T02:15:53.097Z,61
2022-11-15T02:20:49.612Z,65
2022-11-15T02:23:17.842Z,64
2022-11-15T02:25:46.109Z,65
2022-11-15T02:29:28.453Z,74
2022-11-15T02:32:33.773Z,65
2022-11-15T02:35:39.096Z,76
2022-11-15T02:40:35.576Z,73
2022-11-15T02:44:17.953Z,78
2022-11-15T02:47:23.275Z,69
2022-11-15T02:49:51.521Z,65
2022-11-15T02:52:19.740Z,70
2022-11-15T02:54:47.982Z,72
2022-11-15T02:57:16.240Z,72
2022-11-15T02:59:44.513Z,71
2022-11-15T03:03:18.674Z,72
2022-11-15T03:06:23.958Z,71
2022-11-15T03:09:29.294Z,69
2022-11-15T03:12:34.642Z,75
2022-11-15T03:15:39.899Z,69
2022-11-15T03:19:22.261Z,74
2022-11-15T03:22:27.592Z,70
2022-11-15T03:25:32.915Z,73
2022-11-15T03:28:38.216Z,67
2022-11-15T03:32:20.570Z,75
2022-11-15T03:35:25.882Z,77
2022-11-15T03:38:31.301Z,62
2022-11-15T03:41:36.513Z,66
2022-11-15T03:44:41.820Z,69
2022-11-15T03:48:24.181Z,71
2022-11-15T03:51:29.522Z,65
2022-11-15T03:54:34.825Z,68
2022-11-15T03:57:40.116Z,67
2022-11-15T04:02:28.439Z,69
2022-11-15T04:07:25.013Z,66
2022-11-15T04:10:30.236Z,69
2022-11-15T04:13:35.531Z,68
2022-11-15T04:16:43.823Z,74
2022-11-15T04:19:09.086Z,68
2022-11-15T04:21:37.333Z,74
2022-11-15T04:24:42.662Z,71
2022-11-15T04:28:25.001Z,69
2022-11-15T04:31:30.328Z,74
2022-11-15T04:34:35.645Z,70
2022-11-15T04:37:43.916Z,68
2022-11-15T04:41:23.307Z,67
2022-11-15T04:44:28.624Z,64
2022-11-15T04:47:33.960Z,83
2022-11-15T04:50:39.217Z,79
2022-11-15T04:54:21.602Z,72
2022-11-15T04:57:26.933Z,68
2022-11-15T05:02:15.240Z,75
2022-11-15T05:05:20.571Z,76
2022-11-15T05:08:25.826Z,68
2022-11-15T05:11:31.232Z,71
2022-11-15T05:16:27.659Z,77
2022-11-15T05:19:32.979Z,67
2022-11-15T05:22:38.269Z,70
2022-11-15T05:26:20.638Z,74
2022-11-15T05:30:40.082Z,71
2022-11-15T05:35:36.546Z,75
2022-11-15T05:38:41.901Z,72
2022-11-15T05:42:24.243Z,71
2022-11-15T05:45:29.541Z,73
2022-11-15T05:48:34.881Z,69
2022-11-15T05:51:40.155Z,71
2022-11-15T05:55:22.541Z,74
2022-11-15T05:57:50.792Z,76
2022-11-15T06:00:19.053Z,67
2022-11-15T06:02:47.263Z,70
2022-11-15T06:05:15.553Z,72
2022-11-15T06:07:43.768Z,72
2022-11-15T06:11:17.987Z,77
2022-11-15T06:14:23.288Z,67
2022-11-15T06:17:28.591Z,71
2022-11-15T06:20:33.861Z,65
2022-11-15T06:25:30.370Z,77
2022-11-15T06:30:26.861Z,73
2022-11-15T06:33:32.465Z,71
2022-11-15T06:36:37.504Z,74
2022-11-15T06:40:19.888Z,75
2022-11-15T06:44:39.292Z,68
2022-11-15T06:49:35.789Z,77
2022-11-15T06:52:04.047Z,77
2022-11-15T06:55:46.411Z,78
2022-11-15T06:58:51.737Z,78
2022-11-15T07:01:57.045Z,70
2022-11-15T07:04:25.272Z,73
2022-11-15T07:07:30.681Z,76
2022-11-15T07:10:35.883Z,78
2022-11-15T07:13:33.474Z,74
2022-11-15T07:16:38.345Z,77
2022-11-15T07:20:20.706Z,77
2022-11-15T07:23:26.021Z,80
2022-11-15T07:26:31.303Z,76
2022-11-15T07:29:36.608Z,85
2022-11-15T07:34:33.132Z,80
2022-11-15T07:37:38.450Z,77
2022-11-15T07:41:20.802Z,75
2022-11-15T07:44:26.108Z,87
2022-11-15T07:47:31.418Z,81
2022-11-15T07:50:36.732Z,77
2022-11-15T07:53:42.041Z,89
2022-11-15T07:57:24.400Z,81
2022-11-15T08:00:29.752Z,82
2022-11-15T08:03:35.431Z,85
2022-11-15T08:06:40.330Z,76
2022-11-15T08:10:22.704Z,86
2022-11-15T08:13:19.907Z,83
2022-11-15T08:16:25.135Z,81
2022-11-15T08:19:30.454Z,81
2022-11-15T08:22:35.730Z,75
2022-11-15T08:25:41.073Z,82
2022-11-15T08:29:23.449Z,87
2022-11-15T08:32:28.768Z,83
2022-11-15T08:35:34.026Z,88
2022-11-15T08:38:39.394Z,95
2022-11-15T08:41:44.679Z,80
2022-11-15T08:45:27.050Z,77
2022-11-15T08:48:32.710Z,84
2022-11-15T08:51:37.687Z,77
2022-11-15T08:54:42.965Z,75
2022-11-15T08:58:25.308Z,80
2022-11-15T09:01:30.677Z,79
2022-11-15T09:04:35.975Z,73
2022-11-15T09:07:41.255Z,85
2022-11-15T09:11:23.631Z,77
2022-11-15T09:14:20.739Z,77
2022-11-15T09:17:26.066Z,84
2022-11-15T09:20:31.362Z,86
2022-11-15T09:23:36.699Z,80
2022-11-15T09:26:41.984Z,84
2022-11-15T09:30:24.347Z,85
2022-11-15T09:33:30.137Z,78
2022-11-15T09:36:35.013Z,74
2022-11-15T09:39:40.291Z,88
2022-11-15T09:43:22.665Z,73
2022-11-15T09:46:27.978Z,80
2022-11-15T09:49:33.253Z,73
2022-11-15T09:52:38.613Z,76
2022-11-15T09:56:20.973Z,75
2022-11-15T09:59:26.283Z,82
2022-11-15T10:02:31.568Z,109
2022-11-15T10:07:28.128Z,86
2022-11-15T10:10:33.399Z,85
2022-11-15T10:13:30.501Z,88
2022-11-15T10:16:35.824Z,85
2022-11-15T10:19:41.139Z,84
2022-11-15T10:23:23.489Z,80
2022-11-15T10:26:28.815Z,87
2022-11-15T10:29:34.105Z,78
2022-11-15T10:32:39.410Z,78
2022-11-15T10:36:21.826Z,70
2022-11-15T10:39:27.119Z,78
2022-11-15T10:44:23.608Z,75
2022-11-15T10:47:28.929Z,86
2022-11-15T10:50:34.213Z,72
2022-11-15T10:53:39.561Z,81
2022-11-15T10:57:21.874Z,82
2022-11-15T11:00:27.238Z,80
2022-11-15T11:03:32.516Z,81
2022-11-15T11:06:37.845Z,82
2022-11-15T11:10:44.495Z,72
2022-11-15T11:13:25.543Z,57
2022-11-15T11:16:22.632Z,55
2022-11-15T11:19:27.949Z,57
2022-11-15T11:22:33.245Z,56
2022-11-15T11:25:38.547Z,58
2022-11-15T11:30:35.020Z,58
2022-11-15T11:33:40.345Z,51
2022-11-15T11:37:22.722Z,54
2022-11-15T11:40:28.022Z,45
2022-11-15T11:43:33.346Z,44
2022-11-15T11:46:38.687Z,46
2022-11-15T11:50:21.011Z,47
2022-11-15T11:53:26.331Z,39
2022-11-15T11:56:31.664Z,45
2022-11-15T11:59:36.966Z,42
2022-11-15T12:02:42.311Z,39
2022-11-15T12:06:24.649Z,38
2022-11-15T12:09:29.946Z,42
2022-11-15T12:12:35.259Z,33
2022-11-15T12:15:32.383Z,31
2022-11-15T12:20:28.853Z,27
2022-11-15T12:23:34.170Z,30
2022-11-15T12:26:39.491Z,26
2022-11-15T12:33:27.410Z,26
2022-11-15T12:36:32.467Z,24
2022-11-15T12:39:37.801Z,27
2022-11-15T12:43:20.166Z,29
2022-11-15T12:46:25.462Z,32
2022-11-15T12:49:30.773Z,28
2022-11-15T12:52:36.068Z,23
2022-11-15T12:55:41.424Z,27
2022-11-15T12:59:23.759Z,28
2022-11-15T13:02:29.082Z,25
2022-11-15T13:05:34.412Z,26
2022-11-15T13:08:39.704Z,24
2022-11-15T13:12:22.077Z,25
2022-11-15T13:15:27.402Z,23
2022-11-15T13:18:32.911Z,27
2022-11-15T13:23:29.187Z,33
2022-11-15T13:26:18.135Z,26
2022-11-15T13:28:46.356Z,22
2022-11-15T13:31:14.617Z,26
2022-11-15T13:33:42.834Z,24
2022-11-15T13:38:39.384Z,23
2022-11-15T13:43:35.840Z,26
2022-11-15T13:46:04.089Z,29
2022-11-15T13:49:46.468Z,26
2022-11-15T13:52:51.766Z,33
2022-11-15T13:55:57.080Z,31
2022-11-15T13:58:25.300Z,32
2022-11-15T14:01:30.654Z,31
2022-11-15T14:04:35.936Z,30
2022-11-15T14:07:44.391Z,30
2022-11-15T14:10:46.556Z,30
2022-11-15T14:13:14.802Z,34
2022-11-15T14:15:43.070Z,32
2022-11-15T14:18:11.312Z,31
2022-11-15T14:22:30.698Z,32
2022-11-15T14:25:27.863Z,48
2022-11-15T14:28:33.407Z,36
2022-11-15T14:33:29.677Z,35
2022-11-15T14:37:49.111Z,35
2022-11-15T14:40:17.368Z,35
2022-11-15T14:42:45.577Z,34
2022-11-15T14:45:13.840Z,34
2022-11-15T14:47:42.109Z,38
2022-11-15T14:52:38.579Z,35
2022-11-15T14:57:35.075Z,35
2022-11-15T15:00:03.311Z,35
2022-11-15T15:03:45.691Z,32
2022-11-15T15:06:51.065Z,32
2022-11-15T15:10:02.828Z,37
2022-11-15T15:12:24.559Z,28
2022-11-15T15:15:29.867Z,32
2022-11-15T15:18:42.390Z,37
2022-11-15T15:21:40.486Z,32
2022-11-15T15:24:45.799Z,29
2022-11-15T15:27:14.046Z,35
2022-11-15T15:30:56.417Z,36
2022-11-15T15:33:24.685Z,34
2022-11-15T15:36:21.774Z,42
2022-11-15T15:39:27.076Z,39
2022-11-15T15:42:32.413Z,38
2022-11-15T15:48:05.974Z,34
2022-11-15T15:51:48.291Z,33
2022-11-15T15:54:16.541Z,35
2022-11-15T15:56:44.828Z,37
2022-11-15T15:59:13.068Z,36
2022-11-15T16:01:41.349Z,42
2022-11-15T16:05:23.668Z,36
2022-11-15T16:08:34.858Z,34
2022-11-15T16:11:34.288Z,41
2022-11-15T16:14:39.627Z,35
2022-11-15T16:18:21.996Z,42
2022-11-15T16:21:27.296Z,40
2022-11-15T16:24:32.610Z,43
2022-11-15T16:27:37.928Z,41
2022-11-15T16:31:20.276Z,41
2022-11-15T16:34:28.721Z,45
2022-11-15T16:37:22.698Z,40
2022-11-15T16:40:28.036Z,45
2022-11-15T16:43:33.334Z,47
2022-11-15T16:46:38.663Z,41
2022-11-15T16:50:21.002Z,42
2022-11-15T16:53:26.303Z,45
2022-11-15T16:56:31.614Z,44
2022-11-15T16:59:38.398Z,46
2022-11-15T17:02:42.276Z,46
2022-11-15T17:06:24.644Z,53
2022-11-15T17:09:29.924Z,49
2022-11-15T17:12:35.235Z,54
2022-11-15T17:17:31.734Z,58
2022-11-15T17:20:37.027Z,76
2022-11-15T17:23:42.354Z,71
2022-11-15T17:27:24.739Z,83
2022-11-15T17:30:30.078Z,74
2022-11-15T17:33:35.331Z,78
2022-11-15T17:38:23.636Z,74
2022-11-15T17:41:28.975Z,72
2022-11-15T17:44:34.278Z,71
2022-11-15T17:47:39.598Z,76
2022-11-15T17:51:21.947Z,65
2022-11-15T17:54:27.278Z,74
2022-11-15T17:57:32.563Z,112
2022-11-15T18:00:37.967Z,91
2022-11-15T18:04:20.277Z,94
2022-11-15T18:07:25.694Z,79
2022-11-15T18:10:30.877Z,82
2022-11-15T18:13:36.190Z,77
2022-11-15T18:16:41.477Z,75
2022-11-15T18:20:27.899Z,78
2022-11-15T18:23:29.199Z,83
2022-11-15T18:26:34.507Z,90
2022-11-15T18:29:39.790Z,90
2022-11-15T18:33:22.206Z,71
2022-11-15T18:36:27.455Z,68
2022-11-15T18:39:24.584Z,73
2022-11-15T18:42:29.879Z,67
2022-11-15T18:45:35.201Z,59
2022-11-15T18:48:40.515Z,56
2022-11-15T18:52:22.873Z,66
2022-11-15T18:55:28.229Z,72
2022-11-15T18:58:33.513Z,62
2022-11-15T19:01:38.808Z,61
2022-11-15T19:05:21.177Z,65
2022-11-15T19:08:26.871Z,61
2022-11-15T19:11:31.791Z,68
2022-11-15T19:14:37.125Z,75
2022-11-15T19:17:42.450Z,67
2022-11-15T19:21:25.004Z,71
2022-11-15T19:24:30.087Z,62
2022-11-15T19:27:37.993Z,64
2022-11-15T19:30:40.721Z,66
2022-11-15T19:34:23.080Z,67
2022-11-15T19:37:28.431Z,65
2022-11-15T19:40:25.504Z,67
2022-11-15T19:43:31.071Z,75
2022-11-15T19:46:36.137Z,70
2022-11-15T19:49:41.468Z,70
2022-11-15T19:53:23.792Z,63
2022-11-15T19:56:29.139Z,60
2022-11-15T19:59:34.476Z,56
2022-11-15T20:02:39.739Z,66
2022-11-15T20:06:22.126Z,67
2022-11-15T20:09:27.434Z,64
2022-11-15T20:12:32.752Z,52
2022-11-15T20:15:38.072Z,54
2022-11-15T20:19:20.425Z,52
2022-11-15T20:22:25.724Z,52
2022-11-15T20:25:31.051Z,65
2022-11-15T20:28:36.583Z,60
2022-11-15T20:31:41.645Z,53
2022-11-15T20:35:24.024Z,52
2022-11-15T20:37:52.250Z,56
2022-11-15T20:40:12.321Z,46
2022-11-15T20:42:40.561Z,46
2022-11-15T20:46:22.971Z,43
2022-11-15T20:49:28.236Z,39
2022-11-15T20:52:33.561Z,39
2022-11-15T20:55:38.875Z,42
2022-11-15T20:59:21.230Z,42
2022-11-15T21:02:26.561Z,41
2022-11-15T21:05:31.883Z,42
2022-11-15T21:08:37.172Z,71
2022-11-15T21:12:19.519Z,80
2022-11-15T21:15:24.822Z,78
2022-11-15T21:18:30.342Z,69
2022-11-15T21:21:35.457Z,73
2022-11-15T21:24:40.795Z,68
2022-11-15T21:28:23.192Z,65
2022-11-15T21:31:28.467Z,70
2022-11-15T21:34:33.783Z,72
2022-11-15T21:39:22.078Z,74
2022-11-15T21:42:27.383Z,74
2022-11-15T21:45:32.708Z,73
2022-11-15T21:48:37.998Z,74
2022-11-15T21:52:20.370Z,74
2022-11-15T21:55:25.671Z,70
2022-11-15T21:58:31.398Z,81
2022-11-15T22:01:36.389Z,83
2022-11-15T22:05:18.729Z,85
2022-11-15T22:07:46.940Z,91
2022-11-15T22:10:15.176Z,100
2022-11-15T22:12:43.459Z,98
2022-11-15T22:15:11.738Z,89
2022-11-15T22:17:39.885Z,89
2022-11-15T22:21:22.310Z,86
2022-11-15T22:24:27.599Z,83
2022-11-15T22:27:32.935Z,94
2022-11-15T22:30:38.234Z,86
2022-11-15T22:34:20.550Z,87
2022-11-15T22:37:25.870Z,61
2022-11-15T22:40:23.020Z,66
2022-11-15T22:43:28.320Z,74
2022-11-15T22:46:33.612Z,59
2022-11-15T22:49:38.945Z,71
2022-11-15T22:53:21.303Z,65
2022-11-15T22:56:27.655Z,60
2022-11-15T22:59:31.933Z,58
2022-11-15T23:04:28.490Z,56
2022-11-15T23:07:33.804Z,58
2022-11-15T23:10:39.032Z,54
2022-11-15T23:14:21.418Z,60
2022-11-15T23:17:26.735Z,59
2022-11-15T23:20:42.779Z,61
2022-11-15T23:23:37.390Z,69
2022-11-15T23:26:42.642Z,57
2022-11-15T23:30:25.022Z,59
2022-11-15T23:33:30.380Z,60
2022-11-15T23:36:35.637Z,62
2022-11-15T23:39:32.750Z,65
2022-11-15T23:42:38.071Z,61
2022-11-15T23:46:20.432Z,64
2022-11-15T23:49:25.760Z,62
2022-11-15T23:52:31.059Z,63
2022-11-15T23:55:36.358Z,61
2022-11-15T23:58:41.776Z,65
